Amherst, South Dakota
Current Conditions -  °F | °C
As of 2:53 PM on Tuesday 27 Jan 2015 (Local Time) from KABR Reporting Station
Clear Clear  
Wind Chill:   Ceiling: Unl
Heat Index:   Visibility: 10mi
Dew Point:   Wind: 20mph
Humidity: 76%   Direction: 170°S
Pressure: 29.92"   Gusts: NA
Location:  45.74°N, 97.92°W
Report Text: KABR 272053Z AUTO 17017KT 10SM CLR 07/03 A2992 RMK AO2 SLP143 T00670028 56025
Loading
Personal Weather Stations






























Interactive Weather Map New forecast layout! Learn more

10-Day Weather Forecast

Advertisements
Track Severe Weather on mobile